Time;durP1;ratioP1;P1;durP2;ratioP2;P2;SDS_P1;SDS_P2;PMS_P1;PMS_P2;Temp;Humidity;BMP_temperature;BMP_pressure;BME280_temperature;BME280_humidity;BME280_pressure;Samples;Min_cycle;Max_cycle;Signal;HPM_P1;HPM_P2
2023/01/27 00:01:52;;;;;;;0.40;0.40;;;-0.70;99.90;;;;;;5095555;28;20487;-79
2023/01/27 00:04:18;;;;;;;0.50;0.50;;;-0.80;99.90;;;;;;5095269;28;20440;-79
2023/01/27 00:06:45;;;;;;;4.40;1.13;;;-0.80;99.90;;;;;;5094863;28;20465;-79
2023/01/27 00:09:13;;;;;;;0.80;0.67;;;-0.70;99.90;;;;;;5094580;28;20956;-78
2023/01/27 00:14:24;;;;;;;0.30;0.30;;;-0.70;99.90;;;;;;5095154;28;20525;-79
2023/01/27 00:16:51;;;;;;;0.40;0.40;;;-0.70;99.90;;;;;;5095311;28;20469;-79
2023/01/27 00:19:18;;;;;;;0.47;0.47;;;-0.70;99.90;;;;;;5095340;28;20539;-79
2023/01/27 00:24:36;;;;;;;0.30;0.30;;;-0.70;99.90;;;;;;5095312;28;20455;-79
2023/01/27 00:27:03;;;;;;;0.90;0.63;;;-0.70;99.90;;;;;;5095100;28;20477;-79
2023/01/27 00:29:30;;;;;;;0.60;0.47;;;-0.70;99.90;;;;;;5095076;28;20472;-79
2023/01/27 00:34:41;;;;;;;0.30;0.30;;;-0.70;99.90;;;;;;5095030;28;20405;-79
2023/01/27 00:37:08;;;;;;;0.60;0.50;;;-0.80;99.90;;;;;;5094984;28;20818;-79
2023/01/27 00:39:36;;;;;;;0.40;0.40;;;-0.80;99.90;;;;;;5094566;28;20926;-79
2023/01/27 00:42:03;;;;;;;2.93;1.13;;;-0.80;99.90;;;;;;5094787;28;20479;-78
2023/01/27 00:44:30;;;;;;;0.33;0.30;;;-0.80;99.90;;;;;;5094507;28;20445;-78
2023/01/27 00:46:56;;;;;;;0.40;0.30;;;-0.80;99.90;;;;;;5094684;28;20439;-78
2023/01/27 00:49:23;;;;;;;0.40;0.40;;;-0.80;99.90;;;;;;5094457;28;20829;-78
2023/01/27 00:51:51;;;;;;;0.30;0.30;;;-0.80;99.90;;;;;;5094395;28;20967;-78
2023/01/27 00:54:17;;;;;;;0.40;0.40;;;-0.80;99.90;;;;;;5094665;28;20448;-78
2023/01/27 00:56:46;;;;;;;0.30;0.30;;;-0.80;99.90;;;;;;5094535;28;20473;-79
2023/01/27 00:59:12;;;;;;;0.40;0.40;;;-0.80;99.90;;;;;;5094538;28;20445;-78
2023/01/27 01:01:39;;;;;;;1.60;0.73;;;-0.70;99.90;;;;;;5094465;28;20467;-78
2023/01/27 01:04:06;;;;;;;0.33;0.33;;;-0.80;99.90;;;;;;5094350;28;20491;-79
2023/01/27 01:06:32;;;;;;;0.30;0.30;;;-0.80;99.90;;;;;;5095135;28;20436;-79
2023/01/27 01:08:59;;;;;;;0.30;0.30;;;-0.80;99.90;;;;;;5093990;28;20419;-80
2023/01/27 01:11:26;;;;;;;0.70;0.60;;;-0.70;99.90;;;;;;5093976;28;20936;-79
2023/01/27 01:13:54;;;;;;;1.90;0.60;;;-0.70;99.90;;;;;;5093864;28;20445;-82
2023/01/27 01:16:23;;;;;;;0.30;0.30;;;-0.70;99.90;;;;;;5093792;28;20853;-82
2023/01/27 01:18:49;;;;;;;0.30;0.30;;;-0.70;99.90;;;;;;5093696;28;20444;-82
2023/01/27 01:21:16;;;;;;;0.40;0.40;;;-0.70;99.90;;;;;;5094117;28;20452;-82
2023/01/27 01:23:44;;;;;;;0.60;0.40;;;-0.70;99.90;;;;;;5094039;28;20479;-82
2023/01/27 01:26:17;;;;;;;0.30;0.30;;;-0.70;99.90;;;;;;5093634;28;20975;-79
2023/01/27 01:28:44;;;;;;;0.30;0.30;;;-0.70;99.90;;;;;;5094027;28;20429;-78
2023/01/27 01:31:14;;;;;;;0.60;0.60;;;-0.70;99.90;;;;;;5093936;28;20453;-78
2023/01/27 01:33:41;;;;;;;0.30;0.30;;;-0.70;99.90;;;;;;5093868;28;20407;-78
2023/01/27 01:36:10;;;;;;;0.70;0.70;;;-0.80;99.90;;;;;;5093675;28;20447;-79
2023/01/27 01:38:37;;;;;;;1.17;1.17;;;-0.80;99.90;;;;;;5093408;28;20453;-79
2023/01/27 01:41:04;;;;;;;1.00;1.00;;;-0.80;99.90;;;;;;5093709;28;20441;-79
2023/01/27 01:43:31;;;;;;;0.30;0.30;;;-0.80;99.90;;;;;;5093618;28;20487;-79
2023/01/27 01:45:58;;;;;;;0.40;0.40;;;-0.80;99.90;;;;;;5093540;28;20827;-79
2023/01/27 01:48:32;;;;;;;0.30;0.30;;;-0.80;99.90;;;;;;5093605;28;20424;-79
2023/01/27 01:51:03;;;;;;;0.30;0.30;;;-0.80;99.90;;;;;;5093587;28;20441;-79
2023/01/27 01:53:35;;;;;;;0.30;0.30;;;-0.90;99.90;;;;;;5093275;28;20408;-79
2023/01/27 01:56:08;;;;;;;0.40;0.40;;;-0.80;99.90;;;;;;5093426;28;20439;-79
2023/01/27 01:58:35;;;;;;;0.40;0.40;;;-0.90;99.90;;;;;;5093549;28;20433;-79
2023/01/27 02:01:05;;;;;;;0.30;0.20;;;-0.70;99.90;;;;;;5093463;28;20449;-79
2023/01/27 02:03:35;;;;;;;0.50;0.37;;;-0.80;99.90;;;;;;5093338;28;20472;-78
2023/01/27 02:06:03;;;;;;;1.80;1.17;;;-0.80;99.90;;;;;;5093350;28;20476;-79
2023/01/27 02:08:36;;;;;;;3.73;0.93;;;-0.80;99.90;;;;;;5093404;28;20448;-79
2023/01/27 02:11:03;;;;;;;0.50;0.50;;;-0.80;99.90;;;;;;5093495;28;20406;-79
2023/01/27 02:13:30;;;;;;;1.33;0.97;;;-0.80;99.90;;;;;;5093373;28;20429;-79
2023/01/27 02:15:56;;;;;;;0.50;0.50;;;-0.70;99.90;;;;;;5092730;28;20458;-79
2023/01/27 02:18:23;;;;;;;0.30;0.20;;;-0.70;99.90;;;;;;5093292;28;20444;-79
2023/01/27 02:20:53;;;;;;;0.37;0.33;;;-0.80;99.90;;;;;;5093280;28;20455;-79
2023/01/27 02:23:36;;;;;;;0.30;0.30;;;-0.80;99.90;;;;;;5094332;28;20484;-79
2023/01/27 02:26:09;;;;;;;0.30;0.20;;;-0.80;99.90;;;;;;5093249;28;20468;-79
2023/01/27 02:28:36;;;;;;;0.70;0.70;;;-0.90;99.90;;;;;;5093283;28;20431;-79
2023/01/27 02:31:03;;;;;;;0.30;0.30;;;-0.90;99.90;;;;;;5094569;28;20440;-79
2023/01/27 02:33:30;;;;;;;0.30;0.30;;;-0.90;99.90;;;;;;5097306;28;20422;-79
2023/01/27 02:36:02;;;;;;;0.40;0.40;;;-0.90;99.90;;;;;;5096891;28;20840;-80
2023/01/27 02:38:32;;;;;;;0.30;0.30;;;-0.90;99.90;;;;;;5097216;28;20436;-79
2023/01/27 02:41:06;;;;;;;0.30;0.30;;;-0.90;99.90;;;;;;5097572;28;20441;-76
2023/01/27 02:43:34;;;;;;;0.30;0.20;;;-0.90;99.90;;;;;;5096715;28;20978;-76
2023/01/27 02:46:01;;;;;;;0.30;0.30;;;-0.90;99.90;;;;;;5096903;28;20438;-76
2023/01/27 02:48:28;;;;;;;0.40;0.40;;;-0.80;99.90;;;;;;5096936;28;20456;-76
2023/01/27 02:50:55;;;;;;;0.83;0.83;;;-0.90;99.90;;;;;;5096978;28;20452;-76
2023/01/27 02:53:21;;;;;;;0.30;0.30;;;-0.90;99.90;;;;;;5096864;28;20419;-76
2023/01/27 02:55:48;;;;;;;0.30;0.20;;;-0.90;99.90;;;;;;5096779;28;20447;-76
2023/01/27 02:58:15;;;;;;;0.37;0.37;;;-0.80;99.90;;;;;;5096776;28;20448;-77
2023/01/27 03:00:44;;;;;;;0.40;0.40;;;-0.80;99.90;;;;;;5096433;28;20451;-76
2023/01/27 03:03:11;;;;;;;0.43;0.43;;;-0.80;99.90;;;;;;5096539;28;20506;-80
2023/01/27 03:05:38;;;;;;;0.30;0.30;;;-0.80;99.90;;;;;;5096592;28;20833;-79
2023/01/27 03:08:05;;;;;;;0.30;0.30;;;-0.80;99.90;;;;;;5096699;28;20423;-79
2023/01/27 03:10:32;;;;;;;0.43;0.43;;;-0.80;99.90;;;;;;5096716;28;20449;-83
2023/01/27 03:12:59;;;;;;;0.30;0.20;;;-0.80;99.90;;;;;;5096448;28;20791;-83
2023/01/27 03:18:16;;;;;;;5.27;1.90;;;-0.80;99.90;;;;;;5096224;28;20478;-83
2023/01/27 03:20:44;;;;;;;0.50;0.50;;;-0.80;99.90;;;;;;5096450;28;20435;-83
2023/01/27 03:23:12;;;;;;;0.30;0.30;;;-0.80;99.90;;;;;;5096006;28;20472;-83
2023/01/27 03:25:42;;;;;;;0.30;0.30;;;-0.90;99.90;;;;;;5096195;28;20468;-83
2023/01/27 03:28:08;;;;;;;0.53;0.53;;;-1.00;99.90;;;;;;5096251;28;20411;-83
2023/01/27 03:30:35;;;;;;;0.57;0.57;;;-1.00;99.90;;;;;;5096260;28;20455;-82
2023/01/27 03:33:04;;;;;;;3.17;1.33;;;-1.00;99.90;;;;;;5096147;28;20439;-76
2023/01/27 03:35:37;;;;;;;1.13;0.60;;;-0.90;99.90;;;;;;5095898;28;20472;-76
2023/01/27 03:46:21;;;;;;;0.37;0.37;;;-0.80;99.90;;;;;;5095586;28;20492;-76
2023/01/27 03:48:50;;;;;;;5.40;1.17;;;-0.80;99.90;;;;;;5095845;28;20434;-76
2023/01/27 03:51:19;;;;;;;0.30;0.30;;;-0.80;99.90;;;;;;5095470;28;20484;-76
2023/01/27 03:53:46;;;;;;;0.40;0.40;;;-0.70;99.90;;;;;;5095415;28;20959;-76
2023/01/27 03:56:14;;;;;;;0.40;0.40;;;-0.70;99.90;;;;;;5095566;28;20476;-76
2023/01/27 03:58:41;;;;;;;4.43;1.00;;;-0.70;99.90;;;;;;5095589;28;20442;-76
2023/01/27 04:01:13;;;;;;;0.37;0.37;;;-0.80;99.90;;;;;;5095591;28;20455;-76
2023/01/27 04:09:17;;;;;;;0.30;0.27;;;-0.80;99.90;;;;;;5095516;28;20404;-76
2023/01/27 04:11:57;;;;;;;0.70;0.70;;;-0.80;99.90;;;;;;5095350;28;20441;-76
2023/01/27 04:14:25;;;;;;;0.67;0.67;;;-0.90;99.90;;;;;;5095081;28;20476;-76
2023/01/27 04:16:53;;;;;;;0.30;0.30;;;-0.80;99.90;;;;;;5094871;28;20467;-76
2023/01/27 04:19:20;;;;;;;0.70;0.70;;;-0.80;99.90;;;;;;5095188;28;20448;-76
2023/01/27 04:21:49;;;;;;;0.70;0.70;;;-0.80;99.90;;;;;;5095981;28;20444;-76
2023/01/27 04:24:21;;;;;;;0.47;0.47;;;-0.80;99.90;;;;;;5094779;28;20998;-76
2023/01/27 04:26:49;;;;;;;0.40;0.33;;;-0.80;99.90;;;;;;5095037;28;20564;-76
2023/01/27 04:29:17;;;;;;;0.60;0.60;;;-0.80;99.90;;;;;;5094703;28;20453;-76
2023/01/27 04:31:43;;;;;;;0.50;0.50;;;-0.80;99.90;;;;;;5094963;28;20487;-76
2023/01/27 04:34:11;;;;;;;0.30;0.30;;;-0.70;99.90;;;;;;5094606;28;20902;-76
2023/01/27 04:36:38;;;;;;;0.40;0.30;;;-0.80;99.90;;;;;;5094560;28;20779;-76
2023/01/27 04:39:06;;;;;;;0.30;0.30;;;-0.80;99.90;;;;;;5095085;28;20927;-76
2023/01/27 04:41:33;;;;;;;0.30;0.30;;;-0.70;99.90;;;;;;5094770;28;20459;-76
2023/01/27 04:44:00;;;;;;;0.30;0.30;;;-0.70;99.90;;;;;;5094332;28;20994;-76
2023/01/27 04:46:27;;;;;;;0.67;0.50;;;-0.80;99.90;;;;;;5094266;28;20456;-76
2023/01/27 04:48:53;;;;;;;0.30;0.20;;;-0.80;99.90;;;;;;5094654;28;20419;-76
2023/01/27 04:51:20;;;;;;;0.50;0.40;;;-0.80;99.90;;;;;;5094245;28;20817;-76
2023/01/27 04:53:47;;;;;;;0.50;0.50;;;-0.70;99.90;;;;;;5093559;28;20441;-76
2023/01/27 04:56:23;;;;;;;0.30;0.30;;;-0.70;99.90;;;;;;5094078;28;20460;-76
2023/01/27 04:58:49;;;;;;;0.40;0.40;;;-0.70;99.90;;;;;;5094254;28;20439;-76
2023/01/27 05:01:16;;;;;;;0.40;0.40;;;-0.80;99.90;;;;;;5094414;28;20461;-76
2023/01/27 05:03:43;;;;;;;0.40;0.40;;;-0.80;99.90;;;;;;5094288;28;20479;-76
2023/01/27 05:06:10;;;;;;;0.87;0.87;;;-0.80;99.90;;;;;;5093902;28;20472;-76
2023/01/27 05:08:38;;;;;;;0.30;0.30;;;-0.80;99.90;;;;;;5093952;28;20444;-76
2023/01/27 05:11:05;;;;;;;0.40;0.40;;;-0.70;99.90;;;;;;5094225;28;20441;-76
2023/01/27 05:13:34;;;;;;;0.50;0.50;;;-0.70;99.90;;;;;;5093846;28;20939;-76
2023/01/27 05:16:09;;;;;;;0.30;0.30;;;-0.70;99.90;;;;;;5093658;28;20994;-76
2023/01/27 05:18:35;;;;;;;0.70;0.70;;;-0.70;99.90;;;;;;5094713;28;20437;-76
2023/01/27 05:21:03;;;;;;;0.30;0.23;;;-0.80;99.90;;;;;;5094066;28;20450;-76
2023/01/27 05:23:36;;;;;;;1.17;0.60;;;-0.70;99.90;;;;;;5093689;28;20469;-76
2023/01/27 05:26:08;;;;;;;0.30;0.20;;;-0.70;99.90;;;;;;5093917;28;20473;-76
2023/01/27 05:28:37;;;;;;;0.30;0.30;;;-0.60;99.90;;;;;;5093664;28;20440;-76
2023/01/27 05:31:06;;;;;;;0.30;0.30;;;-0.60;99.90;;;;;;5093820;28;20452;-76
2023/01/27 05:33:33;;;;;;;1.37;0.37;;;-0.70;99.90;;;;;;5093799;28;20440;-76
2023/01/27 05:36:01;;;;;;;0.37;0.37;;;-0.70;99.90;;;;;;5093699;28;20841;-76
2023/01/27 05:38:28;;;;;;;1.13;0.77;;;-0.70;99.90;;;;;;5093446;28;20445;-76
2023/01/27 05:40:57;;;;;;;0.30;0.20;;;-0.70;99.90;;;;;;5093725;28;20444;-77
2023/01/27 05:43:24;;;;;;;0.30;0.30;;;-0.70;99.90;;;;;;5093612;28;20502;-77
2023/01/27 05:45:53;;;;;;;0.60;0.60;;;-0.70;99.90;;;;;;5093259;28;20443;-77
2023/01/27 05:48:19;;;;;;;0.30;0.30;;;-0.70;99.90;;;;;;5093569;28;20551;-77
2023/01/27 05:50:55;;;;;;;0.80;0.57;;;-0.70;99.90;;;;;;5093258;28;20452;-77
2023/01/27 05:53:23;;;;;;;0.40;0.40;;;-0.60;99.90;;;;;;5094176;28;20424;-77
2023/01/27 05:55:50;;;;;;;0.30;0.23;;;-0.60;99.90;;;;;;5093495;28;20521;-77
2023/01/27 05:58:17;;;;;;;0.30;0.30;;;-0.60;99.90;;;;;;5093213;28;20975;-77
2023/01/27 06:00:44;;;;;;;0.57;0.57;;;-0.70;99.90;;;;;;5093196;28;20784;-77
2023/01/27 06:03:12;;;;;;;0.30;0.30;;;-0.70;99.90;;;;;;5093148;28;20436;-77
2023/01/27 06:05:39;;;;;;;0.40;0.40;;;-0.80;99.90;;;;;;5093180;28;20488;-77
2023/01/27 06:08:06;;;;;;;0.30;0.30;;;-0.80;99.90;;;;;;5093060;28;20948;-77
2023/01/27 06:10:36;;;;;;;0.40;0.40;;;-0.80;99.90;;;;;;5093378;28;20451;-77
2023/01/27 06:13:03;;;;;;;0.30;0.23;;;-0.80;99.90;;;;;;5093341;28;20427;-77
2023/01/27 06:15:30;;;;;;;0.50;0.50;;;-0.90;99.90;;;;;;5092884;28;20477;-77
2023/01/27 06:17:56;;;;;;;0.40;0.40;;;-0.90;99.90;;;;;;5093296;28;20444;-77
2023/01/27 06:20:25;;;;;;;0.40;0.40;;;-0.90;99.90;;;;;;5093294;28;20808;-77
2023/01/27 06:22:52;;;;;;;0.30;0.30;;;-0.80;99.90;;;;;;5093241;28;20475;-77
2023/01/27 06:25:18;;;;;;;0.57;0.40;;;-0.80;99.90;;;;;;5093385;28;20500;-77
2023/01/27 06:27:45;;;;;;;0.37;0.33;;;-0.80;99.90;;;;;;5092887;28;20916;-77
2023/01/27 06:30:12;;;;;;;0.43;0.43;;;-0.80;99.90;;;;;;5093095;28;20448;-77
2023/01/27 06:32:39;;;;;;;0.40;0.40;;;-0.80;99.90;;;;;;5093177;28;20440;-77
2023/01/27 06:35:07;;;;;;;0.37;0.37;;;-0.80;99.90;;;;;;5093317;28;20854;-77
2023/01/27 06:37:35;;;;;;;2.50;1.57;;;-0.80;99.90;;;;;;5093146;28;20448;-77
2023/01/27 06:40:02;;;;;;;0.37;0.37;;;-0.80;99.90;;;;;;5092796;28;20936;-77
2023/01/27 06:42:29;;;;;;;0.30;0.30;;;-0.70;99.90;;;;;;5093176;28;20441;-77
2023/01/27 06:44:56;;;;;;;0.30;0.30;;;-0.70;99.90;;;;;;5092887;28;20512;-77
2023/01/27 06:47:22;;;;;;;0.40;0.40;;;-0.80;99.90;;;;;;5092997;28;20423;-77
2023/01/27 06:49:49;;;;;;;0.30;0.30;;;-0.80;99.90;;;;;;5093035;28;20452;-77
2023/01/27 06:52:16;;;;;;;0.40;0.37;;;-0.80;99.90;;;;;;5092966;28;20456;-78
2023/01/27 06:54:44;;;;;;;0.30;0.23;;;-0.80;99.90;;;;;;5092871;28;20444;-77
2023/01/27 06:57:11;;;;;;;2.43;1.70;;;-0.80;99.90;;;;;;5092576;28;20967;-77
2023/01/27 06:59:38;;;;;;;1.27;1.13;;;-0.80;99.90;;;;;;5092880;28;20451;-77
2023/01/27 07:02:04;;;;;;;0.33;0.33;;;-0.80;99.90;;;;;;5092824;28;20802;-77
2023/01/27 07:04:31;;;;;;;0.57;0.57;;;-0.80;99.90;;;;;;5092752;28;20481;-77
2023/01/27 07:06:58;;;;;;;0.30;0.30;;;-0.80;99.90;;;;;;5093260;28;20476;-77
2023/01/27 07:09:24;;;;;;;0.60;0.60;;;-0.80;99.90;;;;;;5092795;28;20452;-77
2023/01/27 07:11:53;;;;;;;0.50;0.50;;;-0.70;99.90;;;;;;5092788;28;20449;-81
2023/01/27 07:14:19;;;;;;;0.30;0.30;;;-0.70;99.90;;;;;;5092502;28;20472;-80
2023/01/27 07:16:47;;;;;;;0.30;0.20;;;-0.70;99.90;;;;;;5093559;28;20450;-80
2023/01/27 07:19:15;;;;;;;1.33;0.60;;;-0.70;99.90;;;;;;5096413;28;20445;-81
2023/01/27 07:21:42;;;;;;;0.93;0.93;;;-0.70;99.90;;;;;;5096330;28;20448;-80
2023/01/27 07:24:09;;;;;;;0.30;0.30;;;-0.70;99.90;;;;;;5095948;28;20491;-80
2023/01/27 07:26:35;;;;;;;0.30;0.20;;;-0.70;99.90;;;;;;5096205;28;20492;-81
2023/01/27 07:29:03;;;;;;;0.70;0.60;;;-0.80;99.90;;;;;;5096202;28;20448;-81
2023/01/27 07:31:30;;;;;;;0.73;0.67;;;-0.80;99.90;;;;;;5096157;28;20456;-80
2023/01/27 07:33:57;;;;;;;1.23;0.90;;;-0.80;99.90;;;;;;5096115;28;20426;-81
2023/01/27 07:36:24;;;;;;;0.80;0.80;;;-0.80;99.90;;;;;;5095684;28;20962;-80
2023/01/27 07:38:51;;;;;;;0.30;0.20;;;-0.80;99.90;;;;;;5096030;28;20450;-80
2023/01/27 07:41:17;;;;;;;3.17;1.60;;;-0.80;99.90;;;;;;5096034;28;20419;-80
2023/01/27 07:43:44;;;;;;;0.40;0.40;;;-0.70;99.90;;;;;;5095926;28;20434;-80
2023/01/27 07:46:12;;;;;;;0.30;0.30;;;-0.80;99.90;;;;;;5095481;28;20450;-80
2023/01/27 07:48:39;;;;;;;0.30;0.30;;;-0.80;99.90;;;;;;5095865;28;20456;-80
2023/01/27 07:51:05;;;;;;;2.13;2.03;;;-0.80;99.90;;;;;;5095518;28;20444;-81
2023/01/27 07:53:32;;;;;;;0.50;0.50;;;-0.90;99.90;;;;;;5095768;28;20447;-80
2023/01/27 07:56:00;;;;;;;0.30;0.30;;;-0.90;99.90;;;;;;5095318;28;21001;-80
2023/01/27 07:58:26;;;;;;;1.40;1.30;;;-0.80;99.90;;;;;;5095397;28;20940;-80
2023/01/27 08:00:53;;;;;;;1.53;0.93;;;-0.80;99.90;;;;;;5095651;28;20437;-81
2023/01/27 08:03:23;;;;;;;0.50;0.50;;;-0.70;99.90;;;;;;5095305;28;20455;-79
2023/01/27 08:05:50;;;;;;;0.97;0.97;;;-0.70;99.90;;;;;;5095283;28;20481;-79
2023/01/27 08:08:18;;;;;;;1.20;1.20;;;-0.70;99.90;;;;;;5095536;28;20429;-79
2023/01/27 08:10:48;;;;;;;0.50;0.50;;;-0.70;99.90;;;;;;5095395;28;20452;-80
2023/01/27 08:13:15;;;;;;;0.30;0.30;;;-0.70;99.90;;;;;;5095423;28;20476;-80
2023/01/27 08:15:41;;;;;;;0.30;0.30;;;-0.60;99.90;;;;;;5094774;28;20963;-80
2023/01/27 08:18:09;;;;;;;0.30;0.30;;;-0.60;99.90;;;;;;5095002;28;20966;-79
2023/01/27 08:20:37;;;;;;;0.93;0.60;;;-0.60;99.90;;;;;;5095258;28;20454;-80
2023/01/27 08:23:04;;;;;;;0.40;0.40;;;-0.50;99.90;;;;;;5095237;28;20445;-80
2023/01/27 08:25:31;;;;;;;0.60;0.43;;;-0.50;99.90;;;;;;5095006;28;20481;-79
2023/01/27 08:27:58;;;;;;;0.50;0.50;;;-0.50;99.90;;;;;;5094471;28;20452;-80
2023/01/27 08:30:25;;;;;;;0.30;0.30;;;-0.60;99.90;;;;;;5094788;28;20459;-80
2023/01/27 08:32:51;;;;;;;0.50;0.50;;;-0.60;99.90;;;;;;5095012;28;20499;-80
2023/01/27 08:35:18;;;;;;;4.97;1.07;;;-0.50;99.90;;;;;;5094942;28;20472;-80
2023/01/27 08:37:48;;;;;;;0.40;0.30;;;-0.60;99.90;;;;;;5094906;28;20448;-80
2023/01/27 08:40:14;;;;;;;0.50;0.50;;;-0.60;99.90;;;;;;5094751;28;20503;-80
2023/01/27 08:42:41;;;;;;;1.27;0.73;;;-0.60;99.90;;;;;;5094887;28;20430;-79
2023/01/27 08:45:08;;;;;;;0.30;0.30;;;-0.60;99.90;;;;;;5094295;28;20859;-79
2023/01/27 08:47:35;;;;;;;0.30;0.30;;;-0.60;99.90;;;;;;5094464;28;20412;-79
2023/01/27 08:50:02;;;;;;;0.30;0.20;;;-0.60;99.90;;;;;;5094643;28;20455;-79
2023/01/27 08:52:29;;;;;;;0.93;0.60;;;-0.60;99.90;;;;;;5094591;28;20448;-79
2023/01/27 08:54:57;;;;;;;1.73;1.07;;;-0.60;99.90;;;;;;5094441;28;20503;-79
2023/01/27 08:57:24;;;;;;;0.30;0.30;;;-0.50;99.90;;;;;;5094399;28;20786;-79
2023/01/27 08:59:52;;;;;;;0.30;0.30;;;-0.60;99.90;;;;;;5094476;28;20498;-80
2023/01/27 09:02:21;;;;;;;0.30;0.30;;;-0.60;99.90;;;;;;5094389;28;20452;-80
2023/01/27 09:04:47;;;;;;;0.87;0.87;;;-0.60;99.90;;;;;;5094166;28;20856;-80
2023/01/27 09:07:14;;;;;;;0.30;0.30;;;-0.50;99.90;;;;;;5093863;28;20816;-80
2023/01/27 09:09:41;;;;;;;0.30;0.30;;;-0.40;99.90;;;;;;5094200;28;20471;-79
2023/01/27 09:12:09;;;;;;;1.03;1.03;;;-0.40;99.90;;;;;;5093896;28;20456;-79
2023/01/27 09:14:36;;;;;;;0.67;0.67;;;-0.40;99.90;;;;;;5093936;28;20458;-79
2023/01/27 09:17:03;;;;;;;0.30;0.30;;;-0.40;99.90;;;;;;5094119;28;20468;-79
2023/01/27 09:19:30;;;;;;;0.30;0.30;;;-0.40;99.90;;;;;;5094091;28;20501;-79
2023/01/27 09:21:56;;;;;;;1.23;1.13;;;-0.40;99.90;;;;;;5094077;28;20783;-79
2023/01/27 09:24:23;;;;;;;0.30;0.30;;;-0.40;99.90;;;;;;5093991;28;20426;-79
2023/01/27 09:26:50;;;;;;;0.83;0.50;;;-0.40;99.90;;;;;;5093589;28;20439;-79
2023/01/27 09:29:18;;;;;;;0.40;0.40;;;-0.40;99.90;;;;;;5093952;28;20445;-79
2023/01/27 09:31:45;;;;;;;0.80;0.80;;;-0.30;99.90;;;;;;5093939;28;20419;-79
2023/01/27 09:34:11;;;;;;;0.47;0.47;;;-0.30;99.90;;;;;;5093883;28;20434;-79
2023/01/27 09:36:43;;;;;;;0.30;0.30;;;-0.30;99.90;;;;;;5093803;28;20465;-80
2023/01/27 09:39:11;;;;;;;0.80;0.80;;;-0.30;99.90;;;;;;5093385;28;20919;-79
2023/01/27 09:41:57;;;;;;;0.40;0.40;;;-0.30;99.90;;;;;;5093724;28;20449;-79
2023/01/27 09:44:46;;;;;;;0.43;0.43;;;-0.30;99.90;;;;;;5093689;28;20404;-80
2023/01/27 09:47:28;;;;;;;0.47;0.47;;;-0.30;99.90;;;;;;5093697;28;20429;-80
2023/01/27 09:50:12;;;;;;;0.70;0.60;;;-0.30;99.90;;;;;;5093687;28;20432;-79
2023/01/27 09:53:02;;;;;;;1.70;0.87;;;-0.30;99.90;;;;;;5093334;28;20432;-80
2023/01/27 09:55:38;;;;;;;0.30;0.30;;;-0.40;99.90;;;;;;5093180;28;20456;-80
2023/01/27 09:58:10;;;;;;;0.30;0.30;;;-0.50;99.90;;;;;;5093533;28;20403;-79
2023/01/27 10:00:58;;;;;;;0.50;0.50;;;-0.50;99.90;;;;;;5093551;28;20896;-80
2023/01/27 10:03:52;;;;;;;1.03;0.77;;;-0.50;99.90;;;;;;5093457;28;20810;-80
2023/01/27 10:06:50;;;;;;;0.47;0.47;;;-0.50;99.90;;;;;;5093376;28;20490;-79
2023/01/27 10:09:42;;;;;;;1.60;1.50;;;-0.50;99.90;;;;;;5092815;28;20430;-79
2023/01/27 10:12:21;;;;;;;0.63;0.53;;;-0.50;99.90;;;;;;5093390;28;20419;-80
2023/01/27 10:14:57;;;;;;;0.63;0.60;;;-0.50;99.90;;;;;;5092812;28;20986;-79
2023/01/27 10:17:36;;;;;;;2.30;1.23;;;-0.60;99.90;;;;;;5093236;28;20436;-80
2023/01/27 10:20:14;;;;;;;0.53;0.53;;;-0.50;99.90;;;;;;5093376;28;20448;-79
2023/01/27 10:22:50;;;;;;;0.30;0.30;;;-0.50;99.90;;;;;;5093347;28;20424;-80
2023/01/27 10:25:30;;;;;;;0.30;0.27;;;-0.50;99.90;;;;;;5093142;28;20799;-79
2023/01/27 10:27:58;;;;;;;0.87;0.73;;;-0.40;99.90;;;;;;5092964;28;20439;-80
2023/01/27 10:30:33;;;;;;;0.93;0.60;;;-0.40;99.90;;;;;;5093122;28;20455;-80
2023/01/27 10:33:10;;;;;;;0.30;0.30;;;-0.30;99.90;;;;;;5093227;28;20463;-79
2023/01/27 10:35:42;;;;;;;0.30;0.30;;;-0.30;99.90;;;;;;5093163;28;20460;-79
2023/01/27 10:38:15;;;;;;;1.90;1.80;;;-0.30;99.90;;;;;;5093182;28;20439;-79
2023/01/27 10:40:50;;;;;;;0.30;0.20;;;-0.20;99.90;;;;;;5093169;28;20403;-79
2023/01/27 10:43:27;;;;;;;0.30;0.30;;;-0.20;99.90;;;;;;5093107;28;20429;-79
2023/01/27 10:46:00;;;;;;;0.30;0.30;;;-0.10;99.90;;;;;;5092957;28;20570;-79
2023/01/27 10:48:38;;;;;;;0.50;0.50;;;0.00;99.90;;;;;;5093030;28;20429;-79
2023/01/27 10:51:10;;;;;;;1.53;0.60;;;0.00;99.90;;;;;;5093040;28;20436;-79
2023/01/27 10:53:47;;;;;;;0.83;0.60;;;0.00;99.90;;;;;;5096868;28;20433;-80
2023/01/27 10:56:23;;;;;;;0.80;0.80;;;0.10;99.90;;;;;;5096850;28;20464;-80
2023/01/27 10:58:58;;;;;;;0.40;0.40;;;0.10;99.90;;;;;;5096640;28;20428;-80
2023/01/27 11:01:30;;;;;;;0.40;0.40;;;0.00;99.90;;;;;;5096823;28;20405;-80
2023/01/27 11:04:03;;;;;;;0.60;0.60;;;0.00;99.90;;;;;;5096772;28;20433;-80
2023/01/27 11:06:35;;;;;;;0.70;0.70;;;-0.10;99.90;;;;;;5096571;28;20488;-79
2023/01/27 11:09:10;;;;;;;0.30;0.30;;;-0.10;99.90;;;;;;5096667;28;20407;-82
2023/01/27 11:11:46;;;;;;;1.80;1.50;;;-0.10;99.90;;;;;;5096618;28;20435;-81
2023/01/27 11:14:18;;;;;;;0.30;0.30;;;-0.10;99.90;;;;;;5096357;28;20890;-81
2023/01/27 11:16:49;;;;;;;0.80;0.80;;;-0.10;99.90;;;;;;5096473;28;20902;-81
2023/01/27 11:19:34;;;;;;;0.50;0.50;;;-0.10;99.90;;;;;;5096530;28;20464;-81
2023/01/27 11:22:03;;;;;;;6.80;1.40;;;-0.20;99.90;;;;;;5096498;28;20437;-81
2023/01/27 11:24:42;;;;;;;0.30;0.20;;;-0.30;99.90;;;;;;5096323;28;20502;-81
2023/01/27 11:27:18;;;;;;;3.30;3.10;;;-0.20;99.90;;;;;;5096269;28;20464;-81
2023/01/27 11:29:49;;;;;;;0.83;0.83;;;-0.20;99.90;;;;;;5096876;28;20410;-82
2023/01/27 11:32:23;;;;;;;0.50;0.50;;;-0.20;99.90;;;;;;5096238;28;20436;-81
2023/01/27 11:35:01;;;;;;;0.30;0.30;;;-0.10;99.90;;;;;;5096137;28;20440;-81
2023/01/27 11:37:33;;;;;;;0.30;0.30;;;-0.10;99.90;;;;;;5096265;28;20415;-81
2023/01/27 11:40:01;;;;;;;0.40;0.40;;;-0.10;99.90;;;;;;5095779;28;20433;-80
2023/01/27 11:42:33;;;;;;;4.77;1.00;;;-0.10;99.90;;;;;;5096450;28;20955;-81
2023/01/27 11:45:01;;;;;;;1.00;0.90;;;-0.10;99.90;;;;;;5095843;28;20421;-81
2023/01/27 11:47:30;;;;;;;0.40;0.40;;;-0.20;99.90;;;;;;5095772;28;20850;-81
2023/01/27 11:50:00;;;;;;;0.80;0.80;;;-0.20;99.90;;;;;;5095969;28;20434;-81
2023/01/27 11:52:28;;;;;;;0.30;0.20;;;-0.10;99.90;;;;;;5095940;28;20455;-81
2023/01/27 11:55:03;;;;;;;0.30;0.20;;;-0.10;99.90;;;;;;5095795;28;20440;-81
2023/01/27 11:57:30;;;;;;;0.30;0.30;;;-0.20;99.90;;;;;;5095501;28;20886;-81
2023/01/27 12:00:02;;;;;;;3.77;1.17;;;-0.20;99.90;;;;;;5095901;28;20454;-81
2023/01/27 12:02:35;;;;;;;0.50;0.50;;;-0.20;99.90;;;;;;5095578;28;20432;-81
2023/01/27 12:05:08;;;;;;;2.80;0.80;;;-0.20;99.90;;;;;;5096156;28;20429;-81
2023/01/27 12:07:46;;;;;;;0.30;0.30;;;-0.10;99.90;;;;;;5095588;28;20476;-81
2023/01/27 12:10:26;;;;;;;0.30;0.30;;;0.00;99.90;;;;;;5095290;28;20436;-81
2023/01/27 12:12:53;;;;;;;0.30;0.30;;;0.10;99.90;;;;;;5095503;28;20432;-81
2023/01/27 12:15:20;;;;;;;2.43;0.60;;;0.10;99.90;;;;;;5095019;28;20864;-81
2023/01/27 12:17:50;;;;;;;0.70;0.70;;;0.10;99.90;;;;;;5095316;28;20441;-81
2023/01/27 12:20:31;;;;;;;0.33;0.33;;;0.00;99.90;;;;;;5095356;28;20425;-81
2023/01/27 12:23:01;;;;;;;0.30;0.30;;;0.00;99.90;;;;;;5095342;28;20428;-81
2023/01/27 12:25:31;;;;;;;1.90;1.33;;;-0.10;99.90;;;;;;5095330;28;20450;-81
2023/01/27 12:28:00;;;;;;;0.43;0.43;;;0.00;99.90;;;;;;5095159;28;20497;-81
2023/01/27 12:30:30;;;;;;;0.60;0.60;;;0.00;99.90;;;;;;5095069;28;20455;-81
2023/01/27 12:32:58;;;;;;;0.30;0.30;;;0.00;99.90;;;;;;5095052;28;20467;-81
2023/01/27 12:35:29;;;;;;;2.10;1.90;;;0.10;99.90;;;;;;5094892;28;20468;-81
2023/01/27 12:37:59;;;;;;;0.30;0.30;;;0.10;99.90;;;;;;5095214;28;20900;-81
2023/01/27 12:40:27;;;;;;;0.40;0.40;;;0.10;99.90;;;;;;5094864;28;20453;-81
2023/01/27 12:43:09;;;;;;;0.37;0.37;;;0.00;99.90;;;;;;5094543;28;20452;-81
2023/01/27 12:45:37;;;;;;;0.77;0.50;;;0.10;99.90;;;;;;5094349;28;20843;-81
2023/01/27 12:48:20;;;;;;;0.30;0.30;;;0.20;99.90;;;;;;5094676;28;20513;-81
2023/01/27 12:51:06;;;;;;;0.30;0.30;;;0.30;99.90;;;;;;5094829;28;20770;-81
2023/01/27 12:53:33;;;;;;;1.13;0.67;;;0.20;99.90;;;;;;5094669;28;20433;-81
2023/01/27 12:56:09;;;;;;;4.43;0.70;;;0.20;99.90;;;;;;5094624;28;20442;-81
2023/01/27 12:58:39;;;;;;;0.30;0.20;;;0.20;99.90;;;;;;5094529;28;20440;-81
2023/01/27 13:01:20;;;;;;;0.83;0.77;;;0.20;99.90;;;;;;5094498;28;20471;-81
2023/01/27 13:03:52;;;;;;;0.30;0.30;;;0.20;99.90;;;;;;5094527;28;20437;-81
2023/01/27 13:06:27;;;;;;;0.30;0.30;;;0.10;99.90;;;;;;5094365;28;20495;-81
2023/01/27 13:08:53;;;;;;;0.30;0.30;;;0.10;99.90;;;;;;5094441;28;20440;-81
2023/01/27 13:11:32;;;;;;;1.03;0.57;;;0.10;99.90;;;;;;5093998;28;20455;-80
2023/01/27 13:13:59;;;;;;;0.83;0.77;;;0.10;99.90;;;;;;5093819;28;20436;-80
2023/01/27 13:16:28;;;;;;;0.40;0.30;;;0.10;99.90;;;;;;5093904;28;20543;-81
2023/01/27 13:18:56;;;;;;;0.60;0.60;;;0.10;99.90;;;;;;5094155;28;20891;-81
2023/01/27 13:21:28;;;;;;;0.50;0.50;;;0.10;99.90;;;;;;5094144;28;20445;-81
2023/01/27 13:23:57;;;;;;;0.30;0.30;;;0.20;99.90;;;;;;5093796;28;20425;-81
2023/01/27 13:26:28;;;;;;;0.40;0.27;;;0.20;99.90;;;;;;5093910;28;20487;-81